India Meteorological Department
Airport METARs
Date : 26-08-2019
Sl. # Airport METAR
1 Agartala VEAT 260600Z 20003KT 6000 FEW020 SCT025 BKN100 34/26 Q1004 NOSIG=
2 Ahmedabad VAAH 260600Z 27005KT 2500 BR SCT020 OVC080 27/25 Q1005 BECMG 4000=
3 Allahabad VEAB 260530Z 15008KT 6000 SCT020 SCT030 32/28 Q1002 NOSIG=
4 Amritsar VIAR 260600Z VRB02KT 6000 FEW040 SCT100 33/24 Q1006 NOSIG =
5 Aurangabad VAAU 260600Z 27005KT 5000 HZ FEW020 SCT025 SCT100 28/20 Q10089 NOSIG=
6 Bangalore VOBL 260600Z 26016KT 230V300 8000 SCT012 25/19 Q1013 NOSIG=
7 Baroda VABO 260600Z 27008KT 2500 -RA SCT012 SCT020 OVC080 26/25 Q1005 NOSIG=
8 Bhopal VABP 260600Z 02003KT 5000 HZ SCT006 SCT018 FEW030CB BKN100 26/24 Q1005 NOSIG=
9 Bhubaneswar VEBS 260600Z 20010KT 3000 -RA BKN018 FEW030CB OVC090 27/24 Q1002 BECMG 5000 HZ=
10 Bhuntar VIBR 260600Z 11006KT 6000 FEW020 SCT030 BKN080 26/22 Q1013=
11 Chennai VOMM 260600Z 24010G20KT 9999 FEW020 34/24 Q1007 NOSIG=
12 Coimbatore VOCB 260600Z 20011KT 6000 FEW012 SCT080 31/21 Q1012 NOSIG=
13 Colombo VCBI 260610Z 24006KT 9999 SCT013 BKN017 26/24 Q1012 NOSIG=
14 Delhi VIDP 260600Z 11009KT 4500 HZ SCT030 BKN100 32/25 Q1005 NOSIG=
15 Dehradun VIDN 260600Z 03003KT 6000 SCT030 SCT080 31/24 Q1006=
16 Gauhati VEGT 260600Z 34004KT 5000 HZ FEW020 SCT100 35/28 Q1003 NOSIG=
17 Gaya VEGY 260600Z 09008KT 4000 HZ SCT018 SCT025 32/25 Q1002 NOSIG=
18 Goa VOGO 260600Z 21010KT 6000 SCT016 SCT100 28/25 Q1008 NOSIG=
19 Fursatganj VERB 260500Z 09004KT 5000 HZ FEW030 BKN100 32/27 Q1002=
20 Hyderabad VOHS 260600Z 28008KT 6000 SCT015 BKN100 27/23 Q1010 NOSIG=
21 Imphal VEIM 260600Z 12007KT 5000 HZ SCT018 31/24 Q1008 NOSIG=
22 Indore VAID 260600Z 32005KT 1500 RA SCT010 BKN018 OVC080 23/22 Q1006=
23 Jabalpur VAJB 260600Z 20004KT 3000 HZ SCT010 SCT030 FEW035CB BKN080 27/25 Q1004=
24 Jaipur VIJP 260600Z 09007KT 2500 HZ SCT025 FEW030CB BKN100 30/26 Q1005 NOSIG=
25 Kochi VOCI 260600Z 17004KT 4000 -RA FEW010 SCT012 BKN080 29/24 Q1011 TEMPO 3000 RA=
26 Kolkata VECC 260600Z 12007KT 2800 HZ SCT018 FEW030CB BKN090 30/26 Q1002 BECMG 3000 HZ=
27 Kozhikode VOCL 260600Z 21007KT 5000 BR FEW008 SCT012 FEW025CB BKN080 27/24 Q1010 NOSIG=
28 Lucknow VILK 260600Z 09006KT 4000 BR SCT020 SCT025 BKN100 31/28 Q1003 BECMG 5000 HZ=
29 Madurai VOMD 260600Z 21006KT 9999 FEW020 BKN100 34/21 Q1010 NOSIG=
30 Mohanbari VEMN 260600Z 02004KT 5000 HZ SCT020 SCT100 35/28 Q1003 NOSIG=
31 Mumbai VABB 260600Z 25011KT 4000 HZ SCT020 SCT025 29/25 Q1006 NOSIG=
32 Nagpur VANP 260600Z 25008KT 3000 HZ SCT010 BKN018 OVC080 26/24 Q1004 TEMPO 1500 RA=
33 Ozar VAOZ 260600Z 26014KT 6000 FEW020 SCT030 BKN120 27/20 Q1009 NOSIG=
34 Pantnagar VIPT 260500Z VRB01KT 8000 FEW020 BKN100 29/25 Q1005 =
35 Patna VEPT 260600Z 09010KT 5000 HZ SCT020 SCT025 33/25 Q1002 NOSIG=
36 Raipur VERP 260600Z 19010KT 6000 FEW010 BKN020 BKN100 28/24 Q1003 NOSIG=
37 Safdarjung VIDD 260600Z 11005KT 3500 HZ SCT040 BKN100 34/26 Q1004 NOSIG=
38 Shimla VISM 260600Z 29003KT 7000 FEW005 FEW030 BKN070 25/19 Q1016=
39 Surat VASU 260600Z 00000KT 6000 FEW012 SCT020 BKN090 28/25 Q1006 NOSIG=
40 Ranchi VERC 260600Z 09004KT 2000 -RA SCT010 SCT015 OVC080 25/24 Q1005 NOSIG=
41 Trichy VOTR 260600Z 23006KT 9999 FEW016 SCT100 33/21 Q1008 NOSIG=
42 Trivandrum VOTV 260600Z 31006KT 5000 HZ FEW010 SCT015 FEW025CB BKN080 28/23 Q1011 NOSIG=
43 Udaipur VAUD 260600Z 32004KT 3000 HZ SCT025 BKN080 29/23 Q1006 NOSIG=
44 Varanasi VEBN 260530Z 08010KT 5000 HZ SCT025 32/25 Q1002 NOSIG=
45 Vizag VOVZ 260600Z 24010KT 6000 BR FEW016 BKN080 31/25 Q1003 NOSIG =
46 Male VRMM 260600Z 21010KT 9999 SCT018 FEW019CB OVC110 30/25 Q1012 CB NW NOSIG=
47 Gan VRMG 260600Z 18006KT 9999 FEW017TCU BKN260 30/24 Q1012 TEMPO FEW018CB=
48 Kathmandu VNKT 260600Z NIL=
49 Dhaka VGHS 260600Z 14010KT 4000 HZ FEW025 SCT100 33/25 Q1003 NOSIG=
50 Colombo VCBI 260610Z 24006KT 9999 SCT013 BKN017 26/24 Q1012 NOSIG=
51 Karachi OPKC 260555Z 26010KT 6000 BKN020 31/23 Q1005 NOSIG=
52 Lahore OPLA 261725Z 14010KT 4000 FU FEW040 SCT100 30/26 Q1004 RMK QFE979 RMK A29.65=
53 Leh VILH 260530Z 25006KT 9999 FEW070 SCT100 24/-2 Q1024 NOSIG=
54 Sri Nagar VISR 260530Z 32003KT 6000 SCT025 BKN090 24/19 Q1017 NOSIG=
55 Jammu VIJU 260530Z 11003KT 6000 SCT025 BKN090 33/26 Q1007 NOSIG=
56 Jodhpur VIJO 260530Z 31007KT 6000 SCT025 BKN090 32/23 Q1005 NOSIG=
57 Jaisalmer VIJR 260530Z 23008KT 6000 FEW030 SCT250 34/19 Q1005 NOSIG=
58 Bhuj-Rudra VABJ 260530Z 23004KT 6000 FEW025 BKN100 31/22 Q1006 NOSIG=
59 Gorakhpur VEGK 260530Z 13008KT 6000 SCT030 33/30 Q1003 NOSIG=
60 Agra VIAG 260530Z 10004KT 6000 SCT015 SCT020 31/31 Q1004 TEMPO BKN015=
61 Bagdogra VEBD 260530Z 08004KT 6000 FEW025 SCT060 35/24 Q1004 NOSIG=
62 Gwalior VIGR 260530Z 07006KT 4500 BR SCT012 SCT015 BKN090 29/26 Q1004 TEMPO 4000 RABR=
63 Pune VAPO 260530Z 25009KT 6000 FEW020 SCT030 BKN250 28/20 Q1010 NOSIG=
64 Chandigarh VICG 260530Z 14003KT 6000 FEW025 BKN090 33/27 Q1007 NOSIG=
65 Jamnagar VAJM 260530Z 27010KT 6000 SCT020 BKN100 31/23 Q1005 NOSIG=

 

--- End of List ---